createdAt,value
2017-09-17T00:00:26.489Z,0
2017-09-17T00:01:27.112Z,0
2017-09-17T00:02:26.691Z,0
2017-09-17T00:03:26.687Z,0
2017-09-17T00:04:26.993Z,0
2017-09-17T00:05:26.045Z,0
2017-09-17T00:06:26.666Z,0
2017-09-17T00:07:26.448Z,0
2017-09-17T00:08:27.074Z,0
2017-09-17T00:09:26.340Z,0
2017-09-17T00:10:26.746Z,0
2017-09-17T00:11:26.649Z,0
2017-09-17T00:12:26.319Z,0
2017-09-17T00:13:26.944Z,0
2017-09-17T00:14:26.721Z,0
2017-09-17T00:15:26.928Z,0
2017-09-17T00:16:26.720Z,0
2017-09-17T00:17:27.024Z,0
2017-09-17T00:18:26.701Z,0
2017-09-17T00:19:26.594Z,0
2017-09-17T00:20:26.904Z,0
2017-09-17T00:21:26.905Z,0
2017-09-17T00:22:26.366Z,0
2017-09-17T00:23:25.944Z,0
2017-09-17T00:24:26.884Z,0
2017-09-17T00:25:25.933Z,0
2017-09-17T00:26:26.242Z,0
2017-09-17T00:27:26.644Z,0
2017-09-17T00:28:26.546Z,0
2017-09-17T00:29:26.539Z,0
2017-09-17T00:30:26.215Z,0
2017-09-17T00:31:26.524Z,0
2017-09-17T00:32:26.719Z,0
2017-09-17T00:33:26.827Z,0
2017-09-17T00:34:26.296Z,0
2017-09-17T00:35:26.813Z,0
2017-09-17T00:36:26.811Z,0
2017-09-17T00:37:26.276Z,0
2017-09-17T00:38:25.957Z,0
2017-09-17T00:39:26.794Z,0
2017-09-17T00:40:26.789Z,0
2017-09-17T00:41:26.472Z,0
2017-09-17T00:42:26.154Z,0
2017-09-17T00:43:25.831Z,0
2017-09-17T00:44:26.645Z,0
2017-09-17T00:45:26.228Z,0
2017-09-17T00:46:26.443Z,0
2017-09-17T00:47:26.440Z,0
2017-09-17T00:48:26.437Z,0
2017-09-17T00:49:26.735Z,0
2017-09-17T00:50:26.103Z,0
2017-09-17T00:51:26.506Z,0
2017-09-17T00:52:26.092Z,0
2017-09-17T00:53:26.187Z,0
2017-09-17T00:54:26.393Z,0
2017-09-17T00:55:26.072Z,0
2017-09-17T00:56:26.799Z,0
2017-09-17T00:57:26.382Z,0
2017-09-17T00:58:26.054Z,0
2017-09-17T00:59:26.466Z,0
2017-09-17T01:00:26.043Z,0
2017-09-17T01:01:26.454Z,0
2017-09-17T01:02:26.037Z,0
2017-09-17T01:03:26.027Z,0
2017-09-17T01:04:26.050Z,0
2017-09-17T01:05:26.330Z,0
2017-09-17T01:06:26.479Z,0
2017-09-17T01:07:26.524Z,0
2017-09-17T01:08:25.689Z,0
2017-09-17T01:09:26.722Z,0
2017-09-17T01:10:26.299Z,0
2017-09-17T01:11:26.860Z,0
2017-09-17T01:12:26.126Z,0
2017-09-17T01:13:26.288Z,0
2017-09-17T01:14:26.590Z,0
2017-09-17T01:15:25.961Z,0
2017-09-17T01:16:26.264Z,0
2017-09-17T01:17:26.357Z,0
2017-09-17T01:18:25.729Z,0
2017-09-17T01:19:25.621Z,0
2017-09-17T01:20:26.251Z,0
2017-09-17T01:21:26.238Z,0
2017-09-17T01:22:25.921Z,0
2017-09-17T01:23:25.910Z,0
2017-09-17T01:24:26.223Z,0
2017-09-17T01:25:26.219Z,0
2017-09-17T01:26:25.898Z,0
2017-09-17T01:27:25.574Z,0
2017-09-17T01:28:26.204Z,0
2017-09-17T01:29:26.503Z,0
2017-09-17T01:30:26.182Z,0
2017-09-17T01:31:26.595Z,0
2017-09-17T01:32:26.175Z,0
2017-09-17T01:33:26.290Z,0
2017-09-17T01:34:25.851Z,0
2017-09-17T01:35:25.528Z,0
2017-09-17T01:36:26.148Z,0
2017-09-17T01:37:26.146Z,0
2017-09-17T01:38:26.456Z,0
2017-09-17T01:39:25.922Z,0
2017-09-17T01:40:25.916Z,0
2017-09-17T01:41:26.433Z,0
2017-09-17T01:42:25.486Z,0
2017-09-17T01:43:26.441Z,0
2017-09-17T01:44:26.099Z,0
2017-09-17T01:45:26.098Z,0
2017-09-17T01:46:26.655Z,0
2017-09-17T01:47:26.088Z,0
2017-09-17T01:48:26.081Z,0
2017-09-17T01:49:26.389Z,0
2017-09-17T01:50:26.069Z,0
2017-09-17T01:51:25.849Z,0
2017-09-17T01:52:25.846Z,0
2017-09-17T01:53:25.738Z,0
2017-09-17T01:54:25.729Z,0
2017-09-17T01:55:25.729Z,0
2017-09-17T01:56:25.923Z,0
2017-09-17T01:57:26.027Z,0
2017-09-17T01:58:26.335Z,0
2017-09-17T01:59:26.124Z,0
2017-09-17T02:00:26.014Z,0
2017-09-17T02:01:25.697Z,0
2017-09-17T02:02:25.685Z,0
2017-09-17T02:03:25.777Z,0
2017-09-17T02:04:25.990Z,0
2017-09-17T02:05:25.982Z,0
2017-09-17T02:06:25.350Z,0
2017-09-17T02:07:26.289Z,0
2017-09-17T02:08:25.647Z,0
2017-09-17T02:09:25.529Z,0
2017-09-17T02:10:25.952Z,0
2017-09-17T02:11:25.320Z,0
2017-09-17T02:12:26.248Z,0
2017-09-17T02:13:25.936Z,0
2017-09-17T02:14:25.812Z,0
2017-09-17T02:15:25.612Z,0
2017-09-17T02:16:26.233Z,0
2017-09-17T02:17:26.011Z,0
2017-09-17T02:18:25.902Z,0
2017-09-17T02:19:26.308Z,0
2017-09-17T02:20:25.998Z,0
2017-09-17T02:21:25.578Z,0
2017-09-17T02:22:25.878Z,0
2017-09-17T02:23:25.881Z,0
2017-09-17T02:24:25.560Z,0
2017-09-17T02:25:25.549Z,0
2017-09-17T02:26:25.858Z,0
2017-09-17T02:27:25.224Z,0
2017-09-17T02:28:25.844Z,0
2017-09-17T02:29:25.531Z,0
2017-09-17T02:30:25.522Z,0
2017-09-17T02:31:25.862Z,0
2017-09-17T02:32:25.930Z,0
2017-09-17T02:33:25.502Z,0
2017-09-17T02:34:25.283Z,0
2017-09-17T02:35:25.500Z,0
2017-09-17T02:36:25.799Z,0
2017-09-17T02:37:25.480Z,0
2017-09-17T02:38:25.502Z,0
2017-09-17T02:39:25.781Z,0
2017-09-17T02:40:25.462Z,0
2017-09-17T02:41:25.775Z,0
2017-09-17T02:42:26.085Z,0
2017-09-17T02:43:26.082Z,0
2017-09-17T02:44:25.440Z,0
2017-09-17T02:45:25.753Z,0
2017-09-17T02:46:25.740Z,0
2017-09-17T02:47:25.729Z,0
2017-09-17T02:48:25.828Z,0
2017-09-17T02:49:26.051Z,0
2017-09-17T02:50:25.816Z,0
2017-09-17T02:51:25.749Z,0
2017-09-17T02:52:25.702Z,0
2017-09-17T02:53:26.018Z,0
2017-09-17T02:54:25.700Z,0
2017-09-17T02:55:25.163Z,0
2017-09-17T02:56:25.681Z,0
2017-09-17T02:57:26.086Z,0
2017-09-17T02:58:25.670Z,0
2017-09-17T02:59:25.039Z,0
2017-09-17T03:00:25.976Z,0
2017-09-17T03:01:25.660Z,0
2017-09-17T03:02:25.535Z,0
2017-09-17T03:03:25.639Z,0
2017-09-17T03:04:25.628Z,0
2017-09-17T03:05:25.628Z,0
2017-09-17T03:06:25.623Z,0
2017-09-17T03:07:25.404Z,0
2017-09-17T03:08:25.919Z,0
2017-09-17T03:09:26.019Z,0
2017-09-17T03:10:25.285Z,0
2017-09-17T03:11:25.287Z,0
2017-09-17T03:12:25.272Z,0
2017-09-17T03:13:25.269Z,0
2017-09-17T03:14:25.362Z,0
2017-09-17T03:15:25.569Z,0
2017-09-17T03:16:25.583Z,0
2017-09-17T03:17:25.870Z,0
2017-09-17T03:18:25.237Z,0
2017-09-17T03:19:25.019Z,0
2017-09-17T03:20:25.320Z,0
2017-09-17T03:21:25.320Z,0
2017-09-17T03:22:25.215Z,0
2017-09-17T03:23:24.895Z,0
2017-09-17T03:24:25.715Z,0
2017-09-17T03:25:25.195Z,0
2017-09-17T03:26:25.503Z,0
2017-09-17T03:27:25.382Z,0
2017-09-17T03:28:25.177Z,0
2017-09-17T03:29:25.486Z,0
2017-09-17T03:30:25.480Z,0
2017-09-17T03:31:25.162Z,0
2017-09-17T03:32:25.721Z,0
2017-09-17T03:33:25.779Z,0
2017-09-17T03:34:25.142Z,0
2017-09-17T03:35:25.139Z,0
2017-09-17T03:36:25.131Z,0
2017-09-17T03:37:25.760Z,0
2017-09-17T03:38:25.528Z,0
2017-09-17T03:39:25.521Z,0
2017-09-17T03:40:25.204Z,0
2017-09-17T03:41:25.101Z,0
2017-09-17T03:42:24.882Z,0
2017-09-17T03:43:25.814Z,0
2017-09-17T03:44:25.395Z,0
2017-09-17T03:45:25.485Z,0
2017-09-17T03:46:25.695Z,0
2017-09-17T03:47:25.382Z,0
2017-09-17T03:48:25.368Z,0
2017-09-17T03:49:25.146Z,0
2017-09-17T03:50:25.046Z,0
2017-09-17T03:51:25.673Z,0
2017-09-17T03:52:25.028Z,0
2017-09-17T03:53:25.649Z,0
2017-09-17T03:54:25.654Z,0
2017-09-17T03:55:25.018Z,0
2017-09-17T03:56:25.328Z,0
2017-09-17T03:57:25.001Z,0
2017-09-17T03:58:25.311Z,0
2017-09-17T03:59:25.091Z,0
2017-09-17T04:00:25.616Z,0
2017-09-17T04:01:24.979Z,0
2017-09-17T04:02:25.389Z,0
2017-09-17T04:03:24.964Z,0
2017-09-17T04:04:25.269Z,0
2017-09-17T04:05:25.264Z,0
2017-09-17T04:06:25.574Z,0
2017-09-17T04:07:24.944Z,0
2017-09-17T04:08:25.258Z,0
2017-09-17T04:09:25.245Z,0
2017-09-17T04:10:24.921Z,0
2017-09-17T04:11:25.231Z,0
2017-09-17T04:12:25.225Z,0
2017-09-17T04:13:25.328Z,0
2017-09-17T04:14:25.315Z,0
2017-09-17T04:15:25.205Z,0
2017-09-17T04:16:25.512Z,0
2017-09-17T04:17:25.305Z,0
2017-09-17T04:18:25.499Z,0
2017-09-17T04:19:25.183Z,0
2017-09-17T04:20:25.693Z,0
2017-09-17T04:21:24.856Z,0
2017-09-17T04:22:25.160Z,0
2017-09-17T04:23:25.154Z,0
2017-09-17T04:24:24.531Z,0
2017-09-17T04:25:25.145Z,0
2017-09-17T04:26:25.141Z,0
2017-09-17T04:27:25.137Z,0
2017-09-17T04:28:24.955Z,0
2017-09-17T04:29:24.909Z,0
2017-09-17T04:30:25.120Z,0
2017-09-17T04:31:25.213Z,0
2017-09-17T04:32:25.105Z,0
2017-09-17T04:33:24.472Z,0
2017-09-17T04:34:24.779Z,0
2017-09-17T04:35:25.297Z,0
2017-09-17T04:36:25.178Z,0
2017-09-17T04:37:25.387Z,0
2017-09-17T04:38:25.068Z,0
2017-09-17T04:39:25.075Z,0
2017-09-17T04:40:25.469Z,0
2017-09-17T04:41:24.841Z,0
2017-09-17T04:42:24.729Z,0
2017-09-17T04:43:24.726Z,0
2017-09-17T04:44:25.349Z,0
2017-09-17T04:45:25.021Z,0
2017-09-17T04:46:24.392Z,0
2017-09-17T04:47:25.324Z,0
2017-09-17T04:48:25.005Z,0
2017-09-17T04:49:24.997Z,4
2017-09-17T04:50:24.681Z,4
2017-09-17T04:51:25.295Z,0
2017-09-17T04:52:24.990Z,4
2017-09-17T04:53:25.292Z,4
2017-09-17T04:54:25.283Z,4
2017-09-17T04:55:24.651Z,8
2017-09-17T04:56:25.277Z,4
2017-09-17T04:57:24.959Z,8
2017-09-17T04:58:25.045Z,8
2017-09-17T04:59:24.941Z,12
2017-09-17T05:00:25.249Z,12
2017-09-17T05:01:24.936Z,12
2017-09-17T05:02:24.711Z,12
2017-09-17T05:03:24.700Z,16
2017-09-17T05:04:24.697Z,16
2017-09-17T05:05:25.223Z,20
2017-09-17T05:06:24.585Z,16
2017-09-17T05:07:25.208Z,20
2017-09-17T05:08:24.570Z,20
2017-09-17T05:09:24.881Z,24
2017-09-17T05:10:24.884Z,24
2017-09-17T05:11:24.863Z,28
2017-09-17T05:12:24.546Z,28
2017-09-17T05:13:24.642Z,28
2017-09-17T05:14:24.542Z,32
2017-09-17T05:15:24.677Z,32
2017-09-17T05:16:24.839Z,36
2017-09-17T05:17:24.829Z,36
2017-09-17T05:18:24.612Z,36
2017-09-17T05:19:24.509Z,40
2017-09-17T05:20:25.123Z,40
2017-09-17T05:21:24.493Z,44
2017-09-17T05:22:24.795Z,44
2017-09-17T05:23:24.897Z,44
2017-09-17T05:24:25.112Z,48
2017-09-17T05:25:24.783Z,52
2017-09-17T05:26:24.151Z,52
2017-09-17T05:27:24.875Z,52
2017-09-17T05:28:24.450Z,56
2017-09-17T05:29:24.761Z,60
2017-09-17T05:30:24.537Z,64
2017-09-17T05:31:24.529Z,72
2017-09-17T05:32:24.833Z,80
2017-09-17T05:33:24.730Z,88
2017-09-17T05:34:24.827Z,92
2017-09-17T05:35:25.044Z,100
2017-09-17T05:36:24.187Z,112
2017-09-17T05:37:25.050Z,120
2017-09-17T05:38:24.491Z,132
2017-09-17T05:39:24.797Z,144
2017-09-17T05:40:24.692Z,160
2017-09-17T05:41:24.992Z,172
2017-09-17T05:42:24.367Z,176
2017-09-17T05:43:24.042Z,192
2017-09-17T05:44:24.767Z,196
2017-09-17T05:45:24.444Z,204
2017-09-17T05:46:24.335Z,212
2017-09-17T05:47:24.653Z,224
2017-09-17T05:48:24.643Z,232
2017-09-17T05:49:24.318Z,224
2017-09-17T05:50:24.632Z,208
2017-09-17T05:51:24.513Z,200
2017-09-17T05:52:24.404Z,196
2017-09-17T05:53:24.708Z,196
2017-09-17T05:54:24.607Z,200
2017-09-17T05:55:24.596Z,204
2017-09-17T05:56:24.901Z,204
2017-09-17T05:57:23.957Z,200
2017-09-17T05:58:24.364Z,196
2017-09-17T05:59:24.676Z,184
2017-09-17T06:00:24.878Z,168
2017-09-17T06:01:24.902Z,156
2017-09-17T06:02:24.550Z,156
2017-09-17T06:03:24.637Z,160
2017-09-17T06:04:24.224Z,160
2017-09-17T06:05:24.532Z,160
2017-09-17T06:06:24.524Z,160
2017-09-17T06:07:24.305Z,164
2017-09-17T06:08:24.195Z,164
2017-09-17T06:09:24.189Z,164
2017-09-17T06:10:24.601Z,156
2017-09-17T06:11:24.183Z,160
2017-09-17T06:12:24.485Z,164
2017-09-17T06:13:24.479Z,172
2017-09-17T06:14:24.261Z,176
2017-09-17T06:15:24.152Z,184
2017-09-17T06:16:24.461Z,192
2017-09-17T06:17:24.454Z,196
2017-09-17T06:18:24.451Z,192
2017-09-17T06:19:24.445Z,192
2017-09-17T06:20:24.126Z,184
2017-09-17T06:21:24.433Z,184
2017-09-17T06:22:24.108Z,180
2017-09-17T06:23:24.209Z,176
2017-09-17T06:24:24.730Z,172
2017-09-17T06:25:24.093Z,168
2017-09-17T06:26:24.404Z,168
2017-09-17T06:27:23.767Z,172
2017-09-17T06:28:24.074Z,172
2017-09-17T06:29:24.380Z,176
2017-09-17T06:30:24.629Z,184
2017-09-17T06:31:24.370Z,192
2017-09-17T06:32:24.367Z,200
2017-09-17T06:33:24.140Z,212
2017-09-17T06:34:24.037Z,228
2017-09-17T06:35:24.035Z,256
2017-09-17T06:36:24.023Z,280
2017-09-17T06:37:24.329Z,276
2017-09-17T06:38:24.425Z,280
2017-09-17T06:39:23.791Z,288
2017-09-17T06:40:24.465Z,296
2017-09-17T06:41:23.994Z,304
2017-09-17T06:42:24.086Z,304
2017-09-17T06:43:24.292Z,292
2017-09-17T06:44:24.291Z,280
2017-09-17T06:45:24.278Z,260
2017-09-17T06:46:23.965Z,240
2017-09-17T06:47:24.268Z,224
2017-09-17T06:48:23.635Z,216
2017-09-17T06:49:24.389Z,208
2017-09-17T06:50:24.349Z,204
2017-09-17T06:51:24.243Z,208
2017-09-17T06:52:24.653Z,212
2017-09-17T06:53:24.236Z,216
2017-09-17T06:54:24.016Z,224
2017-09-17T06:55:24.223Z,236
2017-09-17T06:56:24.210Z,248
2017-09-17T06:57:24.215Z,252
2017-09-17T06:58:23.888Z,252
2017-09-17T06:59:23.775Z,256
2017-09-17T07:00:24.289Z,256
2017-09-17T07:01:23.557Z,260
2017-09-17T07:02:23.552Z,264
2017-09-17T07:03:24.169Z,272
2017-09-17T07:04:24.161Z,284
2017-09-17T07:05:24.153Z,304
2017-09-17T07:06:23.728Z,324
2017-09-17T07:07:23.833Z,348
2017-09-17T07:08:24.461Z,372
2017-09-17T07:09:23.820Z,404
2017-09-17T07:10:24.226Z,448
2017-09-17T07:11:24.217Z,520
2017-09-17T07:12:24.111Z,580
2017-09-17T07:13:23.483Z,616
2017-09-17T07:14:23.789Z,656
2017-09-17T07:15:24.092Z,684
2017-09-17T07:16:24.187Z,740
2017-09-17T07:17:24.088Z,760
2017-09-17T07:18:24.079Z,752
2017-09-17T07:19:23.446Z,744
2017-09-17T07:20:23.850Z,760
2017-09-17T07:21:23.848Z,696
2017-09-17T07:22:23.839Z,748
2017-09-17T07:23:24.050Z,676
2017-09-17T07:24:24.045Z,704
2017-09-17T07:25:24.033Z,652
2017-09-17T07:26:24.131Z,620
2017-09-17T07:27:24.026Z,604
2017-09-17T07:28:23.391Z,604
2017-09-17T07:29:23.715Z,608
2017-09-17T07:30:24.322Z,608
2017-09-17T07:31:23.836Z,608
2017-09-17T07:32:23.988Z,600
2017-09-17T07:33:24.094Z,600
2017-09-17T07:34:23.982Z,612
2017-09-17T07:35:24.285Z,620
2017-09-17T07:36:24.285Z,648
2017-09-17T07:37:24.272Z,712
2017-09-17T07:38:24.269Z,744
2017-09-17T07:39:23.325Z,732
2017-09-17T07:40:23.627Z,736
2017-09-17T07:41:24.255Z,764
2017-09-17T07:42:23.643Z,780
2017-09-17T07:43:24.238Z,716
2017-09-17T07:44:23.297Z,672
2017-09-17T07:45:24.015Z,608
2017-09-17T07:46:23.909Z,540
2017-09-17T07:47:23.904Z,500
2017-09-17T07:48:24.030Z,456
2017-09-17T07:49:24.043Z,432
2017-09-17T07:50:23.888Z,432
2017-09-17T07:51:23.253Z,460
2017-09-17T07:52:23.246Z,484
2017-09-17T07:53:23.966Z,508
2017-09-17T07:54:23.551Z,516
2017-09-17T07:55:24.425Z,560
2017-09-17T07:56:23.852Z,616
2017-09-17T07:57:23.217Z,624
2017-09-17T07:58:24.146Z,680
2017-09-17T07:59:23.931Z,732
2017-09-17T08:00:23.612Z,768
2017-09-17T08:01:24.128Z,748
2017-09-17T08:02:24.125Z,704
2017-09-17T08:03:23.804Z,648
2017-09-17T08:04:23.500Z,644
2017-09-17T08:05:23.892Z,660
2017-09-17T08:06:24.103Z,652
2017-09-17T08:07:23.778Z,684
2017-09-17T08:08:23.780Z,712
2017-09-17T08:09:24.088Z,760
2017-09-17T08:10:23.454Z,772
2017-09-17T08:11:23.759Z,792
2017-09-17T08:12:23.756Z,840
2017-09-17T08:13:23.749Z,928
2017-09-17T08:14:23.749Z,976
2017-09-17T08:15:24.050Z,992
2017-09-17T08:16:23.416Z,948
2017-09-17T08:17:24.035Z,888
2017-09-17T08:18:23.731Z,864
2017-09-17T08:19:24.022Z,888
2017-09-17T08:20:23.700Z,908
2017-09-17T08:21:24.114Z,872
2017-09-17T08:22:24.010Z,856
2017-09-17T08:23:23.370Z,880
2017-09-17T08:24:23.369Z,916
2017-09-17T08:25:23.673Z,928
2017-09-17T08:26:24.083Z,928
2017-09-17T08:27:23.354Z,932
2017-09-17T08:28:23.449Z,940
2017-09-17T08:29:23.648Z,948
2017-09-17T08:30:23.331Z,956
2017-09-17T08:31:23.331Z,988
2017-09-17T08:32:23.629Z,1004
2017-09-17T08:33:23.628Z,940
2017-09-17T08:34:23.305Z,748
2017-09-17T08:35:22.991Z,616
2017-09-17T08:36:23.607Z,576
2017-09-17T08:37:23.388Z,580
2017-09-17T08:38:24.008Z,664
2017-09-17T08:39:23.600Z,816
2017-09-17T08:40:23.923Z,776
2017-09-17T08:41:23.581Z,768
2017-09-17T08:42:23.890Z,816
2017-09-17T08:43:23.359Z,852
2017-09-17T08:44:23.877Z,912
2017-09-17T08:45:23.969Z,976
2017-09-17T08:46:23.553Z,1020
2017-09-17T08:47:22.925Z,1016
2017-09-17T08:48:23.232Z,996
2017-09-17T08:49:23.539Z,1080
2017-09-17T08:50:23.525Z,980
2017-09-17T08:51:23.524Z,1024
2017-09-17T08:52:23.302Z,1044
2017-09-17T08:53:23.609Z,1016
2017-09-17T08:54:23.816Z,1032
2017-09-17T08:55:23.748Z,1120
2017-09-17T08:56:23.591Z,1164
2017-09-17T08:57:23.489Z,1256
2017-09-17T08:58:23.270Z,1236
2017-09-17T08:59:23.789Z,1228
2017-09-17T09:00:23.156Z,1232
2017-09-17T09:01:23.154Z,1136
2017-09-17T09:02:23.559Z,1108
2017-09-17T09:03:23.767Z,1028
2017-09-17T09:04:23.235Z,920
2017-09-17T09:05:23.443Z,876
2017-09-17T09:06:23.434Z,772
2017-09-17T09:07:23.740Z,708
2017-09-17T09:08:23.426Z,700
2017-09-17T09:09:23.419Z,592
2017-09-17T09:10:23.099Z,616
2017-09-17T09:11:23.094Z,676
2017-09-17T09:12:23.912Z,700
2017-09-17T09:13:23.081Z,732
2017-09-17T09:14:23.075Z,668
2017-09-17T09:15:23.535Z,664
2017-09-17T09:16:23.065Z,596
2017-09-17T09:17:23.061Z,560
2017-09-17T09:18:23.686Z,560
2017-09-17T09:19:23.361Z,548
2017-09-17T09:20:23.048Z,544
2017-09-17T09:21:22.726Z,548
2017-09-17T09:22:23.347Z,600
2017-09-17T09:23:22.965Z,616
2017-09-17T09:24:23.438Z,648
2017-09-17T09:25:23.325Z,720
2017-09-17T09:26:23.007Z,700
2017-09-17T09:27:23.314Z,660
2017-09-17T09:28:23.093Z,692
2017-09-17T09:29:23.298Z,820
2017-09-17T09:30:23.398Z,916
2017-09-17T09:31:22.980Z,900
2017-09-17T09:32:22.658Z,812
2017-09-17T09:33:23.593Z,700
2017-09-17T09:34:23.789Z,628
2017-09-17T09:35:22.959Z,572
2017-09-17T09:36:23.050Z,564
2017-09-17T09:37:23.357Z,572
2017-09-17T09:38:23.249Z,600
2017-09-17T09:39:23.133Z,608
2017-09-17T09:40:22.925Z,568
2017-09-17T09:41:23.234Z,568
2017-09-17T09:42:23.538Z,648
2017-09-17T09:43:23.225Z,612
2017-09-17T09:44:22.905Z,780
2017-09-17T09:45:23.206Z,776
2017-09-17T09:46:23.610Z,860
2017-09-17T09:47:23.512Z,816
2017-09-17T09:48:23.300Z,892
2017-09-17T09:49:22.872Z,888
2017-09-17T09:50:23.489Z,880
2017-09-17T09:51:23.482Z,892
2017-09-17T09:52:22.858Z,880
2017-09-17T09:53:23.479Z,856
2017-09-17T09:54:23.255Z,876
2017-09-17T09:55:22.526Z,880
2017-09-17T09:56:23.341Z,808
2017-09-17T09:57:23.549Z,792
2017-09-17T09:58:22.827Z,792
2017-09-17T09:59:23.126Z,828
2017-09-17T10:00:22.810Z,824
2017-09-17T10:01:23.119Z,740
2017-09-17T10:02:23.424Z,712
2017-09-17T10:03:22.790Z,836
2017-09-17T10:04:22.788Z,816
2017-09-17T10:05:23.094Z,828
2017-09-17T10:06:23.088Z,912
2017-09-17T10:07:22.870Z,984
2017-09-17T10:08:23.080Z,956
2017-09-17T10:09:23.267Z,948
2017-09-17T10:10:23.383Z,972
2017-09-17T10:11:23.407Z,804
2017-09-17T10:12:23.166Z,804
2017-09-17T10:13:23.361Z,688
2017-09-17T10:14:23.353Z,684
2017-09-17T10:15:23.451Z,636
2017-09-17T10:16:22.403Z,608
2017-09-17T10:17:22.809Z,684
2017-09-17T10:18:23.118Z,672
2017-09-17T10:19:22.808Z,656
2017-09-17T10:20:22.794Z,636
2017-09-17T10:21:22.692Z,624
2017-09-17T10:22:22.994Z,612
2017-09-17T10:23:22.986Z,600
2017-09-17T10:24:23.086Z,592
2017-09-17T10:25:22.982Z,596
2017-09-17T10:26:23.075Z,592
2017-09-17T10:27:22.971Z,596
2017-09-17T10:28:22.339Z,592
2017-09-17T10:29:22.641Z,584
2017-09-17T10:30:22.739Z,576
2017-09-17T10:31:22.628Z,572
2017-09-17T10:32:22.635Z,568
2017-09-17T10:33:22.931Z,572
2017-09-17T10:34:22.928Z,580
2017-09-17T10:35:22.706Z,580
2017-09-17T10:36:22.601Z,580
2017-09-17T10:37:22.698Z,584
2017-09-17T10:38:23.217Z,580
2017-09-17T10:39:22.588Z,580
2017-09-17T10:40:22.893Z,584
2017-09-17T10:41:22.606Z,584
2017-09-17T10:42:22.277Z,584
2017-09-17T10:43:22.986Z,592
2017-09-17T10:44:22.246Z,592
2017-09-17T10:45:22.966Z,592
2017-09-17T10:46:22.646Z,596
2017-09-17T10:47:22.859Z,600
2017-09-17T10:48:22.946Z,608
2017-09-17T10:49:22.634Z,600
2017-09-17T10:50:22.832Z,596
2017-09-17T10:51:22.518Z,600
2017-09-17T10:52:22.300Z,596
2017-09-17T10:53:23.234Z,600
2017-09-17T10:54:23.236Z,604
2017-09-17T10:55:23.118Z,612
2017-09-17T10:56:23.116Z,604
2017-09-17T10:57:22.797Z,608
2017-09-17T10:58:22.484Z,612
2017-09-17T10:59:22.891Z,612
2017-09-17T11:00:22.470Z,608
2017-09-17T11:01:22.772Z,608
2017-09-17T11:02:22.144Z,612
2017-09-17T11:03:22.767Z,608
2017-09-17T11:04:22.230Z,612
2017-09-17T11:05:22.853Z,616
2017-09-17T11:06:22.540Z,624
2017-09-17T11:07:22.428Z,628
2017-09-17T11:08:22.423Z,628
2017-09-17T11:09:23.043Z,628
2017-09-17T11:10:22.731Z,628
2017-09-17T11:11:22.722Z,628
2017-09-17T11:12:22.715Z,628
2017-09-17T11:13:23.026Z,632
2017-09-17T11:14:22.388Z,640
2017-09-17T11:15:22.382Z,644
2017-09-17T11:16:23.005Z,640
2017-09-17T11:17:22.788Z,644
2017-09-17T11:18:22.876Z,644
2017-09-17T11:19:22.988Z,644
2017-09-17T11:20:22.452Z,644
2017-09-17T11:21:22.356Z,648
2017-09-17T11:22:22.669Z,652
2017-09-17T11:23:22.962Z,664
2017-09-17T11:24:22.332Z,664
2017-09-17T11:25:22.639Z,664
2017-09-17T11:26:22.008Z,660
2017-09-17T11:27:22.004Z,680
2017-09-17T11:28:22.723Z,672
2017-09-17T11:29:22.618Z,672
2017-09-17T11:30:22.929Z,676
2017-09-17T11:31:22.712Z,676
2017-09-17T11:32:22.290Z,680
2017-09-17T11:33:22.072Z,688
2017-09-17T11:34:22.587Z,696
2017-09-17T11:35:22.582Z,704
2017-09-17T11:36:22.272Z,712
2017-09-17T11:37:22.679Z,716
2017-09-17T11:38:22.563Z,732
2017-09-17T11:39:22.352Z,728
2017-09-17T11:40:22.242Z,676
2017-09-17T11:41:22.341Z,692
2017-09-17T11:42:22.337Z,724
2017-09-17T11:43:22.326Z,732
2017-09-17T11:44:22.010Z,724
2017-09-17T11:45:22.530Z,560
2017-09-17T11:46:22.525Z,536
2017-09-17T11:47:22.305Z,584
2017-09-17T11:48:22.301Z,660
2017-09-17T11:49:21.981Z,628
2017-09-17T11:50:22.189Z,612
2017-09-17T11:51:22.022Z,604
2017-09-17T11:52:22.594Z,576
2017-09-17T11:53:22.182Z,560
2017-09-17T11:54:21.957Z,536
2017-09-17T11:55:21.847Z,516
2017-09-17T11:56:22.466Z,472
2017-09-17T11:57:22.472Z,512
2017-09-17T11:58:22.771Z,600
2017-09-17T11:59:22.763Z,708
2017-09-17T12:00:22.234Z,720
2017-09-17T12:01:21.815Z,712
2017-09-17T12:02:22.122Z,640
2017-09-17T12:03:22.117Z,596
2017-09-17T12:04:21.898Z,584
2017-09-17T12:05:22.425Z,592
2017-09-17T12:06:22.099Z,644
2017-09-17T12:07:22.409Z,724
2017-09-17T12:08:22.712Z,820
2017-09-17T12:09:22.397Z,1028
2017-09-17T12:10:22.491Z,996
2017-09-17T12:11:21.860Z,1064
2017-09-17T12:12:22.417Z,1060
2017-09-17T12:13:22.090Z,968
2017-09-17T12:14:22.152Z,852
2017-09-17T12:15:22.049Z,848
2017-09-17T12:16:22.047Z,880
2017-09-17T12:17:22.035Z,892
2017-09-17T12:18:21.725Z,888
2017-09-17T12:19:22.032Z,864
2017-09-17T12:20:22.437Z,828
2017-09-17T12:21:22.022Z,816
2017-09-17T12:22:22.168Z,824
2017-09-17T12:23:22.010Z,828
2017-09-17T12:24:22.630Z,848
2017-09-17T12:25:22.721Z,860
2017-09-17T12:26:22.309Z,868
2017-09-17T12:27:21.827Z,892
2017-09-17T12:28:21.978Z,908
2017-09-17T12:29:22.600Z,948
2017-09-17T12:30:22.601Z,964
2017-09-17T12:31:22.383Z,1008
2017-09-17T12:32:22.059Z,1024
2017-09-17T12:33:21.952Z,1064
2017-09-17T12:34:22.358Z,1124
2017-09-17T12:35:22.574Z,1192
2017-09-17T12:36:22.566Z,1328
2017-09-17T12:37:21.929Z,1312
2017-09-17T12:38:22.391Z,1380
2017-09-17T12:39:21.917Z,1488
2017-09-17T12:40:21.601Z,1648
2017-09-17T12:41:21.912Z,1788
2017-09-17T12:42:22.418Z,1780
2017-09-17T12:43:22.214Z,1724
2017-09-17T12:44:21.583Z,1580
2017-09-17T12:45:22.516Z,1360
2017-09-17T12:46:22.202Z,1228
2017-09-17T12:47:22.506Z,1176
2017-09-17T12:48:22.185Z,1156
2017-09-17T12:49:21.803Z,1248
2017-09-17T12:50:21.859Z,1304
2017-09-17T12:51:22.169Z,1308
2017-09-17T12:52:22.475Z,1256
2017-09-17T12:53:21.846Z,1096
2017-09-17T12:54:22.151Z,1060
2017-09-17T12:55:22.044Z,1052
2017-09-17T12:56:21.519Z,1092
2017-09-17T12:57:21.826Z,1132
2017-09-17T12:58:22.232Z,1240
2017-09-17T12:59:21.815Z,1308
2017-09-17T13:00:21.807Z,1400
2017-09-17T13:01:22.120Z,1564
2017-09-17T13:02:21.796Z,1552
2017-09-17T13:03:21.792Z,1524
2017-09-17T13:04:22.104Z,1508
2017-09-17T13:05:21.785Z,1620
2017-09-17T13:06:21.467Z,1664
2017-09-17T13:07:21.875Z,1692
2017-09-17T13:08:22.215Z,1624
2017-09-17T13:09:21.761Z,1772
2017-09-17T13:10:22.068Z,1772
2017-09-17T13:11:22.074Z,1760
2017-09-17T13:12:21.746Z,1552
2017-09-17T13:13:22.061Z,1516
2017-09-17T13:14:21.424Z,1440
2017-09-17T13:15:21.745Z,1444
2017-09-17T13:16:21.419Z,1472
2017-09-17T13:17:21.407Z,1456
2017-09-17T13:18:22.031Z,1304
2017-09-17T13:19:21.718Z,1128
2017-09-17T13:20:21.709Z,1092
2017-09-17T13:21:22.527Z,1116
2017-09-17T13:22:22.008Z,1168
2017-09-17T13:23:22.007Z,1240
2017-09-17T13:24:21.841Z,1336
2017-09-17T13:25:22.090Z,1288
2017-09-17T13:26:21.779Z,1200
2017-09-17T13:27:21.980Z,1096
2017-09-17T13:28:21.974Z,1080
2017-09-17T13:29:21.660Z,1188
2017-09-17T13:30:21.969Z,1180
2017-09-17T13:31:21.751Z,1204
2017-09-17T13:32:21.642Z,1184
2017-09-17T13:33:21.645Z,1148
2017-09-17T13:34:21.630Z,1184
2017-09-17T13:35:22.250Z,1244
2017-09-17T13:36:21.934Z,1288
2017-09-17T13:37:22.338Z,1316
2017-09-17T13:38:22.246Z,1288
2017-09-17T13:39:21.709Z,1320
2017-09-17T13:40:21.913Z,1388
2017-09-17T13:41:21.598Z,1348
2017-09-17T13:42:21.380Z,1452
2017-09-17T13:43:21.588Z,1608
2017-09-17T13:44:22.003Z,1660
2017-09-17T13:45:21.264Z,1652
2017-09-17T13:46:21.885Z,1688
2017-09-17T13:47:21.665Z,1680
2017-09-17T13:48:21.561Z,1660
2017-09-17T13:49:21.878Z,1680
2017-09-17T13:50:21.871Z,1568
2017-09-17T13:51:21.856Z,1496
2017-09-17T13:52:21.853Z,1516
2017-09-17T13:53:22.261Z,1600
2017-09-17T13:54:21.841Z,1632
2017-09-17T13:55:21.728Z,1684
2017-09-17T13:56:22.149Z,1636
2017-09-17T13:57:21.836Z,1508
2017-09-17T13:58:21.509Z,1464
2017-09-17T13:59:21.819Z,1492
2017-09-17T14:00:21.499Z,1496
2017-09-17T14:01:21.185Z,1508
2017-09-17T14:02:21.807Z,1584
2017-09-17T14:03:21.588Z,1664